Time;durP1;ratioP1;P1;durP2;ratioP2;P2;SDS_P1;SDS_P2;PMS_P1;PMS_P2;Temp;Humidity;BMP_temperature;BMP_pressure;BME280_temperature;BME280_humidity;BME280_pressure;Samples;Min_cycle;Max_cycle;Signal;HPM_P1;HPM_P2
2022/02/01 00:00:10;;;;;;;20.65;4.00;;;4.40;99.90;;;;;;4137887;28;20462;-64
2022/02/01 00:02:16;;;;;;;22.85;3.92;;;4.40;99.90;;;;;;4143697;28;20057;-62
2022/02/01 00:04:21;;;;;;;22.13;4.35;;;4.40;99.90;;;;;;4138942;28;20034;-62
2022/02/01 00:06:30;;;;;;;20.65;4.07;;;4.40;99.90;;;;;;4136237;28;20049;-62
2022/02/01 00:13:04;;;;;;;17.05;3.10;;;4.30;99.90;;;;;;4138113;28;20042;-62
2022/02/01 00:17:54;;;;;;;21.92;3.58;;;4.30;99.90;;;;;;4136529;28;20038;-65
2022/02/01 00:20:11;;;;;;;21.63;3.28;;;4.40;99.90;;;;;;4140993;28;20121;-62
2022/02/01 00:38:01;;;;;;;24.98;4.40;;;4.30;99.90;;;;;;4139844;28;20042;-62
2022/02/01 00:40:09;;;;;;;12.23;3.78;;;4.40;99.90;;;;;;4133578;28;20200;-63
2022/02/01 00:42:11;;;;;;;29.45;4.25;;;4.40;99.90;;;;;;4138114;28;20096;-62
2022/02/01 00:44:11;;;;;;;23.83;3.27;;;4.50;99.90;;;;;;4136092;28;20485;-62
2022/02/01 00:46:12;;;;;;;15.82;3.45;;;4.50;99.90;;;;;;4136843;28;20285;-62
2022/02/01 00:48:13;;;;;;;19.20;3.75;;;4.50;99.90;;;;;;4134806;28;20477;-62
2022/02/01 00:50:15;;;;;;;18.95;2.88;;;4.50;99.90;;;;;;4135438;28;20403;-63
2022/02/01 00:52:16;;;;;;;;;;;4.50;99.90;;;;;;4143402;28;20037;-63
2022/02/01 00:54:16;;;;;;;11.98;2.75;;;4.50;99.90;;;;;;4136914;28;19909;-62
2022/02/01 00:56:18;;;;;;;18.60;2.90;;;4.50;99.90;;;;;;4132460;28;20045;-62
2022/02/01 00:58:19;;;;;;;18.42;2.75;;;4.50;99.90;;;;;;4139840;28;20045;-65
2022/02/01 01:00:21;;;;;;;20.27;3.53;;;4.60;99.90;;;;;;4138689;28;20430;-63
2022/02/01 01:02:22;;;;;;;21.23;3.70;;;4.60;99.90;;;;;;4138856;28;20038;-61
2022/02/01 01:04:22;;;;;;;24.15;3.55;;;4.50;99.90;;;;;;4138897;28;20277;-63
2022/02/01 01:06:23;;;;;;;15.77;3.03;;;4.50;99.90;;;;;;4133271;28;20042;-63
2022/02/01 01:08:23;;;;;;;19.45;3.53;;;4.50;99.90;;;;;;4139285;28;20056;-62
2022/02/01 01:10:24;;;;;;;11.10;2.70;;;4.50;99.90;;;;;;4134558;28;20543;-63
2022/02/01 01:12:27;;;;;;;15.05;3.72;;;4.50;99.90;;;;;;4139653;28;20084;-63
2022/02/01 01:14:59;;;;;;;;;;;4.50;99.90;;;;;;4133316;28;20474;-62
2022/02/01 01:38:46;;;;;;;22.15;3.35;;;4.50;99.90;;;;;;4136376;28;20382;-62
2022/02/01 01:45:16;;;;;;;19.35;3.45;;;4.60;99.90;;;;;;4131748;28;20054;-64
2022/02/01 01:54:18;;;;;;;18.98;3.47;;;4.60;99.90;;;;;;4132929;28;20044;-63
2022/02/01 01:56:19;;;;;;;20.40;3.38;;;4.60;99.90;;;;;;4139323;28;20033;-69
2022/02/01 01:58:25;;;;;;;16.73;2.80;;;4.60;99.90;;;;;;4141763;28;20054;-63
2022/02/01 02:02:35;;;;;;;13.30;2.90;;;4.60;99.90;;;;;;4137039;28;20038;-63
2022/02/01 02:04:35;;;;;;;13.70;2.97;;;4.70;99.90;;;;;;4132954;28;20493;-62
2022/02/01 02:06:38;;;;;;;17.33;3.40;;;4.70;99.90;;;;;;4135127;28;20534;-63
2022/02/01 02:08:43;;;;;;;10.57;2.65;;;4.70;99.90;;;;;;4140021;28;20408;-62
2022/02/01 02:10:56;;;;;;;15.10;2.65;;;4.70;99.90;;;;;;4141394;28;20049;-63
2022/02/01 02:14:18;;;;;;;13.70;3.05;;;4.70;99.90;;;;;;4127130;28;20042;-63
2022/02/01 02:15:37;;;;;;;13.55;2.25;;;4.70;99.90;;;;;;4128894;28;20492;-63
2022/02/01 02:17:37;;;;;;;;;;;4.80;99.90;;;;;;4134942;28;20065;-62
2022/02/01 02:19:38;;;;;;;11.80;2.30;;;4.70;99.90;;;;;;4136586;28;19914;-63
2022/02/01 02:21:40;;;;;;;10.57;2.13;;;4.80;99.90;;;;;;4137042;28;20058;-63
2022/02/01 02:23:40;;;;;;;19.88;3.30;;;4.80;99.90;;;;;;4145415;28;20133;-62
2022/02/01 02:25:41;;;;;;;18.38;2.70;;;4.80;99.90;;;;;;4140784;28;20034;-62
2022/02/01 02:27:42;;;;;;;13.60;2.72;;;4.80;99.90;;;;;;4140606;28;20389;-63
2022/02/01 02:29:43;;;;;;;16.35;2.72;;;4.80;99.90;;;;;;4143061;28;20030;-63
2022/02/01 02:31:43;;;;;;;10.35;2.75;;;4.80;99.90;;;;;;4138840;28;20038;-62
2022/02/01 02:33:44;;;;;;;18.88;3.42;;;4.80;99.90;;;;;;4138106;28;20038;-63
2022/02/01 02:35:52;;;;;;;12.88;2.75;;;4.80;99.90;;;;;;4144516;28;20029;-62
2022/02/01 02:37:53;;;;;;;10.43;2.28;;;4.80;99.90;;;;;;4138483;28;20050;-63
2022/02/01 02:40:17;;;;;;;15.40;2.83;;;4.80;99.90;;;;;;4137312;28;20482;-63
2022/02/01 02:42:33;;;;;;;11.52;2.40;;;4.80;99.90;;;;;;4141859;28;20054;-63
2022/02/01 02:46:55;;;;;;;16.40;2.78;;;4.80;99.90;;;;;;4138732;28;20049;-63
2022/02/01 02:48:56;;;;;;;6.72;2.15;;;4.80;99.90;;;;;;4138158;28;20041;-63
2022/02/01 02:50:56;;;;;;;10.82;2.30;;;4.80;99.90;;;;;;4141179;28;20053;-63
2022/02/01 02:52:57;;;;;;;14.73;2.65;;;4.80;99.90;;;;;;4133818;28;20031;-63
2022/02/01 02:54:58;;;;;;;7.47;2.30;;;4.80;99.90;;;;;;4139241;28;20034;-63
2022/02/01 02:57:01;;;;;;;9.40;2.25;;;4.80;99.90;;;;;;4136571;28;20401;-63
2022/02/01 02:59:03;;;;;;;12.02;2.13;;;4.80;99.90;;;;;;4137878;28;20137;-63
2022/02/01 03:01:05;;;;;;;12.10;2.53;;;4.90;99.90;;;;;;4143206;28;20042;-62
2022/02/01 03:03:05;;;;;;;12.27;2.38;;;4.80;99.90;;;;;;4139349;28;20133;-63
2022/02/01 03:05:06;;;;;;;8.57;2.13;;;4.80;99.90;;;;;;4135607;28;20520;-64
2022/02/01 03:07:07;;;;;;;12.32;2.03;;;4.80;99.90;;;;;;4144618;28;20045;-63
2022/02/01 03:09:09;;;;;;;13.50;2.60;;;4.80;99.90;;;;;;4143021;28;20393;-63
2022/02/01 03:11:14;;;;;;;10.33;2.97;;;4.80;99.90;;;;;;4134670;28;20053;-63
2022/02/01 03:13:21;;;;;;;15.65;2.55;;;4.80;99.90;;;;;;4140486;28;20624;-63
2022/02/01 03:19:56;;;;;;;9.15;2.25;;;4.80;99.90;;;;;;4136737;28;20057;-63
2022/02/01 03:21:56;;;;;;;11.15;2.67;;;4.90;99.90;;;;;;4135155;28;20541;-63
2022/02/01 03:23:57;;;;;;;15.82;3.15;;;4.80;99.90;;;;;;4138461;28;20037;-63
2022/02/01 03:25:57;;;;;;;15.02;3.15;;;4.80;99.90;;;;;;4140679;28;20040;-63
2022/02/01 03:27:58;;;;;;;12.68;2.42;;;4.80;99.90;;;;;;4139242;28;20089;-63
2022/02/01 03:29:59;;;;;;;12.98;2.88;;;4.80;99.90;;;;;;4141865;28;20046;-63
2022/02/01 03:31:59;;;;;;;10.43;2.33;;;4.80;99.90;;;;;;4141140;28;20103;-62
2022/02/01 03:34:00;;;;;;;11.70;2.30;;;4.80;99.90;;;;;;4139963;28;20541;-63
2022/02/01 03:36:01;;;;;;;9.30;2.38;;;4.90;99.90;;;;;;4136106;28;20405;-62
2022/02/01 03:38:02;;;;;;;11.25;1.92;;;4.80;99.90;;;;;;4137365;28;20120;-64
2022/02/01 03:40:03;;;;;;;12.07;2.83;;;4.80;99.90;;;;;;4140802;28;20040;-66
2022/02/01 03:42:04;;;;;;;9.65;2.17;;;4.80;99.90;;;;;;4143400;28;20073;-64
2022/02/01 03:44:06;;;;;;;9.27;2.45;;;4.80;99.90;;;;;;4140974;28;20378;-64
2022/02/01 03:46:07;;;;;;;10.30;2.03;;;4.80;99.90;;;;;;4142981;28;20037;-64
2022/02/01 03:48:08;;;;;;;10.90;2.08;;;4.80;99.90;;;;;;4142367;28;20042;-62
2022/02/01 03:50:08;;;;;;;8.27;2.22;;;4.90;99.90;;;;;;4140776;28;20053;-63
2022/02/01 03:52:11;;;;;;;9.98;1.98;;;4.80;99.90;;;;;;4141288;28;20131;-62
2022/02/01 03:54:11;;;;;;;16.40;2.40;;;4.90;99.90;;;;;;4142664;28;20482;-62
2022/02/01 03:56:12;;;;;;;13.18;2.40;;;4.80;99.90;;;;;;4140688;28;20261;-63
2022/02/01 03:58:12;;;;;;;7.07;2.00;;;4.80;99.90;;;;;;4142063;28;20164;-63
2022/02/01 04:00:15;;;;;;;10.40;2.17;;;4.80;99.90;;;;;;4137841;28;20107;-63
2022/02/01 04:02:17;;;;;;;13.38;2.10;;;4.90;99.90;;;;;;4143618;28;20054;-63
2022/02/01 04:04:17;;;;;;;7.70;1.98;;;4.90;99.90;;;;;;4143651;28;20043;-63
2022/02/01 04:06:18;;;;;;;15.55;2.38;;;4.90;99.90;;;;;;4139146;28;20040;-63
2022/02/01 04:08:22;;;;;;;7.80;2.20;;;4.90;99.90;;;;;;4142533;28;20038;-63
2022/02/01 04:10:22;;;;;;;12.10;2.10;;;4.90;99.90;;;;;;4140922;28;20046;-63
2022/02/01 04:12:24;;;;;;;14.40;2.63;;;4.90;99.90;;;;;;4142671;28;20062;-63
2022/02/01 04:14:29;;;;;;;9.65;2.35;;;4.90;99.90;;;;;;4142860;28;20038;-63
2022/02/01 04:16:30;;;;;;;7.78;2.15;;;4.90;99.90;;;;;;4136583;28;20042;-63
2022/02/01 04:18:30;;;;;;;10.95;2.08;;;4.90;99.90;;;;;;4142698;28;20045;-63
2022/02/01 04:20:31;;;;;;;9.93;2.60;;;4.90;99.90;;;;;;4140659;28;20408;-63
2022/02/01 04:22:32;;;;;;;10.07;2.10;;;5.00;99.90;;;;;;4141980;28;20149;-63
2022/02/01 04:24:39;;;;;;;17.15;2.28;;;5.00;99.90;;;;;;4138328;28;20034;-63
2022/02/01 04:26:40;;;;;;;7.85;1.80;;;5.00;99.90;;;;;;4140718;28;20046;-63
2022/02/01 04:28:40;;;;;;;8.88;2.13;;;5.00;99.90;;;;;;4138964;28;20042;-63
2022/02/01 04:30:41;;;;;;;12.68;2.45;;;5.00;99.90;;;;;;4141069;28;20038;-63
2022/02/01 04:32:47;;;;;;;11.23;2.15;;;5.00;99.90;;;;;;4140767;28;20042;-63
2022/02/01 04:34:53;;;;;;;18.38;3.50;;;5.00;99.90;;;;;;4141764;28;20176;-63
2022/02/01 04:36:54;;;;;;;14.50;2.50;;;4.90;99.90;;;;;;4138129;28;20077;-63
2022/02/01 04:38:57;;;;;;;15.80;2.58;;;5.00;99.90;;;;;;4144184;28;20026;-63
2022/02/01 04:40:58;;;;;;;11.82;2.20;;;5.00;99.90;;;;;;4140006;28;20115;-63
2022/02/01 04:42:58;;;;;;;8.60;1.80;;;5.00;99.90;;;;;;4139611;28;20470;-63
2022/02/01 04:44:59;;;;;;;8.68;1.95;;;5.00;99.90;;;;;;4140796;28;20085;-63
2022/02/01 04:47:00;;;;;;;16.05;2.35;;;5.00;99.90;;;;;;4142800;28;20409;-63
2022/02/01 04:49:06;;;;;;;6.65;1.73;;;5.00;99.90;;;;;;4142007;28;20039;-63
2022/02/01 04:51:07;;;;;;;10.65;2.00;;;5.00;99.90;;;;;;4138631;28;20142;-63
2022/02/01 04:53:08;;;;;;;10.15;2.30;;;5.00;99.90;;;;;;4142081;28;20169;-63
2022/02/01 04:55:08;;;;;;;11.25;2.38;;;5.00;99.90;;;;;;4141597;28;20046;-67
2022/02/01 04:57:09;;;;;;;8.63;2.13;;;5.00;99.90;;;;;;4141176;28;20453;-62
2022/02/01 04:59:10;;;;;;;10.68;2.75;;;5.00;99.90;;;;;;4143589;28;20191;-63
2022/02/01 05:01:13;;;;;;;13.50;2.55;;;4.90;99.90;;;;;;4135465;28;20053;-63
2022/02/01 05:03:14;;;;;;;15.27;2.17;;;4.90;99.90;;;;;;4141260;28;20107;-62
2022/02/01 05:05:14;;;;;;;8.15;2.13;;;5.00;99.90;;;;;;4140221;28;20041;-63
2022/02/01 05:07:20;;;;;;;14.02;2.35;;;5.00;99.90;;;;;;4139989;28;20464;-63
2022/02/01 05:09:23;;;;;;;10.18;2.10;;;5.00;99.90;;;;;;4141107;28;20863;-64
2022/02/01 05:11:24;;;;;;;11.45;1.60;;;5.00;99.90;;;;;;4138124;28;20037;-63
2022/02/01 05:15:31;;;;;;;14.95;2.33;;;5.00;99.90;;;;;;4139448;28;20049;-63
2022/02/01 05:17:38;;;;;;;11.45;2.53;;;5.00;99.90;;;;;;4142784;28;20037;-62
2022/02/01 05:21:43;;;;;;;8.73;2.22;;;5.00;99.90;;;;;;4140390;28;20042;-63
2022/02/01 05:23:44;;;;;;;8.65;2.42;;;5.00;99.90;;;;;;4141619;28;20049;-62
2022/02/01 05:25:45;;;;;;;16.20;2.40;;;5.00;99.90;;;;;;4140295;28;20038;-63
2022/02/01 05:27:45;;;;;;;10.70;2.58;;;5.00;99.90;;;;;;4141437;28;20047;-62
2022/02/01 05:29:46;;;;;;;12.43;2.63;;;5.00;99.90;;;;;;4137060;28;20050;-63
2022/02/01 05:31:51;;;;;;;14.10;2.33;;;5.00;99.90;;;;;;4136035;28;20038;-62
2022/02/01 05:33:55;;;;;;;10.77;2.78;;;5.00;99.90;;;;;;4139257;28;20339;-63
2022/02/01 05:35:56;;;;;;;9.73;2.67;;;5.00;99.90;;;;;;4129808;28;20068;-62
2022/02/01 05:37:57;;;;;;;13.65;2.95;;;5.00;99.90;;;;;;4138209;28;20038;-62
2022/02/01 05:39:58;;;;;;;13.25;3.00;;;5.00;99.90;;;;;;4135589;28;20026;-62
2022/02/01 05:41:59;;;;;;;10.07;2.70;;;5.00;99.90;;;;;;4126471;28;20104;-62
2022/02/01 05:44:03;;;;;;;14.82;2.50;;;5.00;99.90;;;;;;4140145;28;20054;-62
2022/02/01 05:46:04;;;;;;;11.20;2.83;;;5.00;99.90;;;;;;4140711;28;20125;-63
2022/02/01 05:48:04;;;;;;;11.45;2.72;;;5.00;99.90;;;;;;4140747;28;20390;-62
2022/02/01 05:50:06;;;;;;;6.82;2.10;;;5.00;99.90;;;;;;4141807;28;20046;-65
2022/02/01 05:52:06;;;;;;;11.73;2.72;;;5.00;99.90;;;;;;4140910;28;20042;-62
2022/02/01 05:54:07;;;;;;;11.10;2.90;;;5.00;99.90;;;;;;4142535;28;20093;-62
2022/02/01 05:56:08;;;;;;;12.73;3.00;;;4.90;99.90;;;;;;4142165;28;20042;-62
2022/02/01 05:58:08;;;;;;;11.73;2.60;;;4.90;99.90;;;;;;4142552;28;20295;-62
2022/02/01 06:00:09;;;;;;;9.38;2.60;;;4.90;99.90;;;;;;4142163;28;20599;-63
2022/02/01 06:02:10;;;;;;;14.00;2.97;;;4.90;99.90;;;;;;4141710;28;20060;-62
2022/02/01 06:04:11;;;;;;;5.95;2.28;;;4.80;99.90;;;;;;4142454;28;20064;-62
2022/02/01 06:06:11;;;;;;;14.25;2.80;;;4.80;99.90;;;;;;4140699;28;20053;-62
2022/02/01 06:08:12;;;;;;;8.02;1.88;;;4.90;99.90;;;;;;4140864;28;20041;-62
2022/02/01 06:10:13;;;;;;;17.50;3.00;;;4.80;99.90;;;;;;4142045;28;20065;-63
2022/02/01 06:12:14;;;;;;;13.57;2.78;;;4.90;99.90;;;;;;4142346;28;20049;-62
2022/02/01 06:14:14;;;;;;;12.13;2.70;;;4.80;99.90;;;;;;4141508;28;20050;-62
2022/02/01 06:16:15;;;;;;;14.07;2.35;;;4.80;99.90;;;;;;4141746;28;20054;-62
2022/02/01 06:18:16;;;;;;;13.13;3.25;;;4.80;99.90;;;;;;4142859;28;20050;-62
2022/02/01 06:20:17;;;;;;;15.18;3.22;;;4.80;99.90;;;;;;4140607;28;20089;-63
2022/02/01 06:22:17;;;;;;;9.50;2.55;;;4.90;99.90;;;;;;4139422;28;20125;-62
2022/02/01 06:24:20;;;;;;;10.93;2.83;;;4.80;99.90;;;;;;4140453;28;20070;-62
2022/02/01 06:26:22;;;;;;;11.10;2.58;;;4.80;99.90;;;;;;4139232;28;20093;-64
2022/02/01 06:28:25;;;;;;;12.93;3.08;;;4.80;99.90;;;;;;4142312;28;20057;-63
2022/02/01 06:30:26;;;;;;;10.40;2.70;;;4.80;99.90;;;;;;4140681;28;20042;-63
2022/02/01 06:32:32;;;;;;;12.57;2.53;;;4.80;99.90;;;;;;4132731;28;20069;-63
2022/02/01 06:34:32;;;;;;;12.48;2.60;;;4.80;99.90;;;;;;4155554;28;20040;-62
2022/02/01 06:36:33;;;;;;;12.32;2.85;;;4.80;99.90;;;;;;4138663;28;20062;-62
2022/02/01 06:38:33;;;;;;;9.90;2.85;;;4.80;99.90;;;;;;4142628;28;20042;-62
2022/02/01 06:40:34;;;;;;;14.38;3.22;;;4.80;99.90;;;;;;4140198;28;20041;-62
2022/02/01 06:42:35;;;;;;;13.85;3.08;;;4.80;99.90;;;;;;4132681;28;20466;-62
2022/02/01 06:44:36;;;;;;;12.52;2.78;;;4.90;99.90;;;;;;4147758;28;20049;-62
2022/02/01 06:46:39;;;;;;;17.92;3.40;;;4.90;99.90;;;;;;4128405;28;20041;-62
2022/02/01 06:48:40;;;;;;;15.70;3.47;;;4.90;99.90;;;;;;4134931;28;20060;-62
2022/02/01 06:50:40;;;;;;;8.15;2.65;;;4.80;99.90;;;;;;4153564;28;20064;-63
2022/02/01 06:52:41;;;;;;;20.00;4.07;;;4.90;99.90;;;;;;4133170;28;20039;-62
2022/02/01 06:54:41;;;;;;;15.45;3.33;;;4.90;99.90;;;;;;4134576;28;20040;-62
2022/02/01 06:56:42;;;;;;;25.40;4.53;;;4.90;99.90;;;;;;4142444;28;20544;-63
2022/02/01 06:58:43;;;;;;;14.60;3.30;;;4.90;99.90;;;;;;4140577;28;20422;-62
2022/02/01 07:00:43;;;;;;;16.65;3.25;;;4.90;99.90;;;;;;4139741;28;20050;-62
2022/02/01 07:02:44;;;;;;;16.10;3.35;;;4.90;99.90;;;;;;4142996;28;20469;-62
2022/02/01 07:04:46;;;;;;;15.52;3.92;;;4.90;99.90;;;;;;4143103;28;20053;-62
2022/02/01 07:06:47;;;;;;;13.40;3.17;;;4.90;99.90;;;;;;4137888;28;20499;-62
2022/02/01 07:08:49;;;;;;;14.52;3.95;;;4.90;99.90;;;;;;4140925;28;20073;-62
2022/02/01 07:10:50;;;;;;;10.27;3.20;;;4.90;99.90;;;;;;4139864;28;20034;-62
2022/02/01 07:12:51;;;;;;;12.73;3.33;;;5.00;99.90;;;;;;4142195;28;20406;-65
2022/02/01 07:14:51;;;;;;;11.25;3.13;;;4.90;99.90;;;;;;4141469;28;20038;-63
2022/02/01 07:16:52;;;;;;;18.65;4.10;;;4.90;99.90;;;;;;4140323;28;20046;-63
2022/02/01 07:18:52;;;;;;;18.45;3.72;;;5.00;99.90;;;;;;4141637;28;20545;-63
2022/02/01 07:20:53;;;;;;;20.17;4.35;;;5.00;99.90;;;;;;4141162;28;20045;-66
2022/02/01 07:22:54;;;;;;;17.30;3.67;;;5.00;99.90;;;;;;4140124;28;20397;-63
2022/02/01 07:25:01;;;;;;;15.20;3.40;;;5.00;99.90;;;;;;4141860;28;20045;-62
2022/02/01 07:27:10;;;;;;;12.02;3.15;;;5.00;99.90;;;;;;4137993;28;20037;-62
2022/02/01 07:29:10;;;;;;;15.55;3.50;;;5.00;99.90;;;;;;4140523;28;20116;-62
2022/02/01 07:31:11;;;;;;;14.48;3.53;;;5.00;99.90;;;;;;4139636;28;20088;-62
2022/02/01 07:33:12;;;;;;;14.52;4.22;;;5.10;99.90;;;;;;4140793;28;20061;-62
2022/02/01 07:35:13;;;;;;;12.32;3.40;;;5.00;99.90;;;;;;4139889;28;20355;-62
2022/02/01 07:37:14;;;;;;;13.98;3.45;;;5.00;99.90;;;;;;4141132;28;20083;-62
2022/02/01 07:39:14;;;;;;;24.20;4.55;;;5.10;99.90;;;;;;4141840;28;20064;-62
2022/02/01 07:41:15;;;;;;;14.93;3.72;;;5.00;99.90;;;;;;4133611;28;20054;-62
2022/02/01 07:43:16;;;;;;;15.50;4.97;;;5.10;99.90;;;;;;4139676;28;20037;-62
2022/02/01 07:45:22;;;;;;;19.45;4.40;;;5.10;99.90;;;;;;4139918;28;20104;-63
2022/02/01 07:47:23;;;;;;;18.35;4.10;;;5.10;99.90;;;;;;4137835;28;20137;-63
2022/02/01 07:49:24;;;;;;;15.13;3.83;;;5.20;99.90;;;;;;4135654;28;20464;-63
2022/02/01 07:51:24;;;;;;;14.85;4.43;;;5.10;99.90;;;;;;4138682;28;20095;-63
2022/02/01 07:53:25;;;;;;;21.05;4.93;;;5.20;99.90;;;;;;4140513;28;20056;-63
2022/02/01 07:55:27;;;;;;;24.73;5.18;;;5.20;99.90;;;;;;4139637;28;20045;-63
2022/02/01 07:57:28;;;;;;;19.13;4.47;;;5.20;99.90;;;;;;4141322;28;20046;-63
2022/02/01 07:59:28;;;;;;;15.70;4.40;;;5.20;99.90;;;;;;4140995;28;20065;-63
2022/02/01 08:01:29;;;;;;;14.55;4.30;;;5.20;99.90;;;;;;4139308;28;20933;-63
2022/02/01 08:03:29;;;;;;;17.60;4.63;;;5.20;99.90;;;;;;4140673;28;20042;-63
2022/02/01 08:05:32;;;;;;;16.85;4.50;;;5.20;99.90;;;;;;4138564;28;21653;-63
2022/02/01 08:07:32;;;;;;;19.05;4.78;;;5.20;99.90;;;;;;4138734;28;20038;-63
2022/02/01 08:09:36;;;;;;;18.63;5.07;;;5.30;99.90;;;;;;4141136;28;20033;-62
2022/02/01 08:11:38;;;;;;;19.50;5.32;;;5.20;99.90;;;;;;4138355;28;20037;-63
2022/02/01 08:16:32;;;;;;;14.73;4.35;;;5.30;99.90;;;;;;4138600;28;20042;-63
2022/02/01 08:20:36;;;;;;;18.50;4.33;;;5.30;99.90;;;;;;4139028;28;20038;-63
2022/02/01 08:22:49;;;;;;;13.68;4.63;;;5.30;99.90;;;;;;4141192;28;20401;-62
2022/02/01 08:24:50;;;;;;;19.20;5.07;;;5.30;99.90;;;;;;4140424;28;20042;-63
2022/02/01 08:26:51;;;;;;;16.73;5.05;;;5.30;99.90;;;;;;4137961;28;20580;-63
2022/02/01 08:28:51;;;;;;;11.73;5.10;;;5.30;99.90;;;;;;4139387;28;20575;-64
2022/02/01 08:30:54;;;;;;;18.00;5.15;;;5.30;99.90;;;;;;4138359;28;20486;-63
2022/02/01 08:32:54;;;;;;;16.20;5.78;;;5.30;99.90;;;;;;4139945;28;20057;-64
2022/02/01 08:34:56;;;;;;;17.75;5.55;;;5.40;99.90;;;;;;4140989;28;20041;-63
2022/02/01 08:36:56;;;;;;;16.80;5.63;;;5.40;99.90;;;;;;4140053;28;20042;-62
2022/02/01 08:38:57;;;;;;;19.52;5.90;;;5.40;99.90;;;;;;4140351;28;20052;-63
2022/02/01 08:40:58;;;;;;;19.55;5.43;;;5.40;99.90;;;;;;4137999;28;20049;-63
2022/02/01 08:42:58;;;;;;;15.77;5.60;;;5.40;99.90;;;;;;4140888;28;21431;-63
2022/02/01 08:44:59;;;;;;;16.23;5.70;;;5.40;99.90;;;;;;4140943;28;20053;-63
2022/02/01 08:47:00;;;;;;;17.05;5.85;;;5.50;99.90;;;;;;4138936;28;20679;-63
2022/02/01 08:49:00;;;;;;;18.48;6.63;;;5.50;99.90;;;;;;4141306;28;20053;-63
2022/02/01 08:51:06;;;;;;;15.27;5.45;;;5.40;99.90;;;;;;4138310;28;20481;-62
2022/02/01 08:55:33;;;;;;;15.82;5.85;;;5.50;99.90;;;;;;4138749;28;20045;-63
2022/02/01 08:57:34;;;;;;;20.65;6.00;;;5.50;99.90;;;;;;4138162;28;20033;-63
2022/02/01 08:59:34;;;;;;;15.32;5.95;;;5.40;99.90;;;;;;4139628;28;20385;-62
2022/02/01 09:01:35;;;;;;;16.58;5.53;;;5.50;99.90;;;;;;4136827;28;20104;-62
2022/02/01 09:03:35;;;;;;;17.10;5.70;;;5.40;99.90;;;;;;4139722;28;20385;-61
2022/02/01 09:05:39;;;;;;;17.27;5.65;;;5.50;99.90;;;;;;4138590;28;20034;-61
2022/02/01 09:07:40;;;;;;;16.95;5.40;;;5.40;99.90;;;;;;4140230;28;20061;-61
2022/02/01 09:09:40;;;;;;;15.05;5.68;;;5.50;99.90;;;;;;4137148;28;20434;-62
2022/02/01 09:11:41;;;;;;;14.98;6.10;;;5.40;99.90;;;;;;4139054;28;20092;-61
2022/02/01 09:13:43;;;;;;;16.38;6.32;;;5.50;99.90;;;;;;4139749;28;20038;-61
2022/02/01 09:15:44;;;;;;;17.58;6.05;;;5.50;99.90;;;;;;4140560;28;20042;-61
2022/02/01 09:17:45;;;;;;;14.80;5.63;;;5.40;99.90;;;;;;4139190;28;20077;-61
2022/02/01 09:19:45;;;;;;;17.00;5.82;;;5.40;99.90;;;;;;4140530;28;20528;-62
2022/02/01 09:21:46;;;;;;;19.13;6.60;;;5.40;99.90;;;;;;4138760;28;20050;-62
2022/02/01 09:23:47;;;;;;;15.10;6.03;;;5.40;99.90;;;;;;4140142;28;20046;-62
2022/02/01 09:25:48;;;;;;;17.08;6.68;;;5.40;99.90;;;;;;4139137;28;20061;-62
2022/02/01 09:27:50;;;;;;;14.13;5.50;;;5.40;99.90;;;;;;4141220;28;20092;-62
2022/02/01 09:29:50;;;;;;;10.93;5.05;;;5.40;99.90;;;;;;4139910;28;20121;-62
2022/02/01 09:31:52;;;;;;;11.25;5.32;;;5.50;99.90;;;;;;4138591;28;20081;-62
2022/02/01 09:33:53;;;;;;;16.55;5.82;;;5.50;99.90;;;;;;4139951;28;20417;-62
2022/02/01 09:35:53;;;;;;;14.52;5.55;;;5.40;99.90;;;;;;4138302;28;20046;-62
2022/02/01 09:37:54;;;;;;;16.90;6.35;;;5.50;99.90;;;;;;4139476;28;20030;-62
2022/02/01 09:39:55;;;;;;;12.63;6.05;;;5.50;99.90;;;;;;4110607;28;20057;-65
2022/02/01 09:41:56;;;;;;;12.18;5.68;;;5.50;99.90;;;;;;4132613;28;20060;-64
2022/02/01 09:43:57;;;;;;;12.55;5.63;;;5.50;99.90;;;;;;4112313;28;20090;-62
2022/02/01 09:45:59;;;;;;;14.00;5.38;;;5.50;99.90;;;;;;4138549;28;20100;-62
2022/02/01 09:48:01;;;;;;;15.77;6.45;;;5.50;99.90;;;;;;4139765;28;20122;-62
2022/02/01 09:50:03;;;;;;;11.73;5.63;;;5.50;99.90;;;;;;4139645;28;20045;-63
2022/02/01 09:52:04;;;;;;;9.55;5.35;;;5.50;99.90;;;;;;4138689;28;20128;-62
2022/02/01 09:54:05;;;;;;;12.15;5.53;;;5.50;99.90;;;;;;4140091;28;20045;-62
2022/02/01 09:56:06;;;;;;;11.30;5.45;;;5.60;99.90;;;;;;4138656;28;20042;-62
2022/02/01 09:58:10;;;;;;;11.57;5.22;;;5.60;99.90;;;;;;4137882;28;20045;-62
2022/02/01 10:00:17;;;;;;;9.75;5.18;;;5.60;99.90;;;;;;4136913;28;20053;-62
2022/02/01 10:02:19;;;;;;;8.48;5.15;;;5.70;99.90;;;;;;4135091;28;20065;-62
2022/02/01 10:04:27;;;;;;;11.40;5.20;;;5.60;99.90;;;;;;4140034;28;20128;-62
2022/02/01 10:06:32;;;;;;;10.18;5.30;;;5.60;99.90;;;;;;4138105;28;20049;-62
2022/02/01 10:08:33;;;;;;;11.68;5.10;;;5.60;99.90;;;;;;4137642;28;20037;-61
2022/02/01 10:10:33;;;;;;;8.30;4.57;;;5.70;99.90;;;;;;4139363;28;20481;-62
2022/02/01 10:12:36;;;;;;;9.85;5.07;;;5.60;99.90;;;;;;4138199;28;20119;-62
2022/02/01 10:14:39;;;;;;;15.43;5.38;;;5.70;99.90;;;;;;4111987;28;20485;-63
2022/02/01 10:16:42;;;;;;;7.50;4.20;;;5.70;99.90;;;;;;4135211;28;20133;-62
2022/02/01 10:18:43;;;;;;;10.30;4.70;;;5.70;99.90;;;;;;4134491;28;20122;-62
2022/02/01 10:20:44;;;;;;;8.75;4.35;;;5.80;99.90;;;;;;4139671;28;20072;-62
2022/02/01 10:22:45;;;;;;;6.82;4.50;;;5.80;99.90;;;;;;4140101;28;20065;-62
2022/02/01 10:24:45;;;;;;;7.85;4.53;;;5.80;99.90;;;;;;4140112;28;20042;-62
2022/02/01 10:26:50;;;;;;;8.45;3.90;;;5.90;99.90;;;;;;4137564;28;20827;-62
2022/02/01 10:29:07;;;;;;;6.10;3.70;;;5.90;99.90;;;;;;4138828;28;20042;-62
2022/02/01 10:31:20;;;;;;;6.38;3.80;;;5.90;99.90;;;;;;4139650;28;20474;-63
2022/02/01 10:35:58;;;;;;;6.40;4.03;;;6.00;99.90;;;;;;4134290;28;20039;-62
2022/02/01 10:38:02;;;;;;;6.03;3.70;;;6.00;99.90;;;;;;4141925;28;20054;-62
2022/02/01 10:40:05;;;;;;;6.28;3.50;;;6.00;99.90;;;;;;4142433;28;20060;-63
2022/02/01 10:42:12;;;;;;;5.72;3.58;;;6.00;99.90;;;;;;4140539;28;20057;-64
2022/02/01 10:44:13;;;;;;;5.15;3.25;;;6.00;99.90;;;;;;4142244;28;20041;-62
2022/02/01 10:46:16;;;;;;;5.15;2.80;;;6.10;99.90;;;;;;4138849;28;20038;-62
2022/02/01 10:48:24;;;;;;;5.80;3.58;;;6.10;99.90;;;;;;4141718;28;20045;-62
2022/02/01 10:50:28;;;;;;;6.60;2.90;;;6.10;99.90;;;;;;4140042;28;20034;-63
2022/02/01 10:52:33;;;;;;;3.85;2.95;;;6.10;99.90;;;;;;4142531;28;20046;-62
2022/02/01 10:54:36;;;;;;;4.40;3.08;;;6.20;99.90;;;;;;4142776;28;20073;-62
2022/02/01 10:56:37;;;;;;;4.43;2.63;;;6.20;99.90;;;;;;4140454;28;20069;-63
2022/02/01 10:58:38;;;;;;;5.43;3.35;;;6.20;99.90;;;;;;4142180;28;20041;-63
2022/02/01 11:00:40;;;;;;;5.18;2.78;;;6.20;99.90;;;;;;4139852;28;20053;-63
2022/02/01 11:02:43;;;;;;;5.30;2.70;;;6.20;99.90;;;;;;4141406;28;20030;-62
2022/02/01 11:04:44;;;;;;;;;;;6.20;99.90;;;;;;4139517;28;20258;-62
2022/02/01 11:06:45;;;;;;;3.67;2.90;;;6.20;99.90;;;;;;4141505;28;19917;-62
2022/02/01 11:08:49;;;;;;;4.57;2.88;;;6.30;99.90;;;;;;4141581;28;20048;-63
2022/02/01 11:10:51;;;;;;;4.78;2.50;;;6.30;99.90;;;;;;4139642;28;20129;-62
2022/02/01 11:13:02;;;;;;;3.63;2.80;;;6.30;99.90;;;;;;4140771;28;20050;-66
2022/02/01 11:15:03;;;;;;;3.10;2.65;;;6.30;99.90;;;;;;4140916;28;20046;-63
2022/02/01 11:17:06;;;;;;;3.53;2.78;;;6.40;99.90;;;;;;4142188;28;20477;-62
2022/02/01 11:19:08;;;;;;;3.63;2.55;;;6.40;99.90;;;;;;4140827;28;20160;-64
2022/02/01 11:21:14;;;;;;;5.38;3.00;;;6.40;99.90;;;;;;4139269;28;20497;-63
2022/02/01 11:23:19;;;;;;;3.47;2.60;;;6.40;99.90;;;;;;4139693;28;20505;-62
2022/02/01 11:25:22;;;;;;;3.95;2.42;;;6.40;99.90;;;;;;4140667;28;20050;-63
2022/02/01 11:27:46;;;;;;;5.30;3.08;;;6.40;99.90;;;;;;4137735;28;20061;-63
2022/02/01 11:31:51;;;;;;;3.63;2.58;;;6.40;99.90;;;;;;4140353;28;20052;-62
2022/02/01 11:33:52;;;;;;;2.58;2.38;;;6.50;99.90;;;;;;4142271;28;20034;-64
2022/02/01 11:36:03;;;;;;;3.30;2.47;;;6.40;99.90;;;;;;4140702;28;20042;-63
2022/02/01 11:38:13;;;;;;;2.90;2.60;;;6.50;99.90;;;;;;4142539;28;20046;-62
2022/02/01 11:40:15;;;;;;;3.83;2.40;;;6.50;99.90;;;;;;4141514;28;20092;-63
2022/02/01 11:42:17;;;;;;;4.07;2.50;;;6.50;99.90;;;;;;4140476;28;20046;-62
2022/02/01 11:44:29;;;;;;;3.00;2.60;;;6.50;99.90;;;;;;4140797;28;20038;-62
2022/02/01 11:46:29;;;;;;;3.45;2.40;;;6.50;99.90;;;;;;4140248;28;20422;-62
2022/02/01 11:48:33;;;;;;;3.83;2.17;;;6.60;99.90;;;;;;4143081;28;20041;-63
2022/02/01 11:50:47;;;;;;;4.20;2.65;;;6.60;99.90;;;;;;4140102;28;20049;-62
2022/02/01 11:52:51;;;;;;;4.25;2.60;;;6.60;99.90;;;;;;4141497;28;20046;-62
2022/02/01 11:55:06;;;;;;;3.50;2.33;;;6.60;99.90;;;;;;4137701;28;20046;-62
2022/02/01 11:57:27;;;;;;;2.13;1.92;;;6.60;99.90;;;;;;4123183;28;20485;-63
2022/02/01 11:59:29;;;;;;;3.22;2.65;;;6.70;99.90;;;;;;4125847;28;21270;-62
2022/02/01 12:01:38;;;;;;;3.20;2.33;;;6.70;99.90;;;;;;4120938;28;20061;-62